Time;durP1;ratioP1;P1;durP2;ratioP2;P2;SDS_P1;SDS_P2;PMS_P1;PMS_P2;Temp;Humidity;BMP_temperature;BMP_pressure;BME280_temperature;BME280_humidity;BME280_pressure;Samples;Min_cycle;Max_cycle;Signal;HPM_P1;HPM_P2
2023/05/26 00:00:06;;;;;;;6.00;5.40;;;;;;;10.35;75.74;101866.31;5053028;28;20532;-71
2023/05/26 00:02:36;;;;;;;6.73;5.47;;;;;;;10.30;75.54;101860.38;5053955;28;20277;-71
2023/05/26 00:05:03;;;;;;;7.97;5.23;;;;;;;10.27;75.70;101864.38;5047940;28;20213;-71
2023/05/26 00:07:30;;;;;;;9.37;5.30;;;;;;;10.24;77.00;101870.22;5055033;28;20200;-71
2023/05/26 00:09:56;;;;;;;8.23;5.53;;;;;;;10.20;76.93;101858.66;5050131;28;20275;-71
2023/05/26 00:12:23;;;;;;;9.13;6.27;;;;;;;10.15;76.54;101869.31;5057316;28;20711;-71
2023/05/26 00:14:49;;;;;;;8.73;6.30;;;;;;;10.12;76.45;101867.28;5047070;28;20267;-71
2023/05/26 00:17:16;;;;;;;8.60;5.87;;;;;;;10.07;76.87;101863.94;5049686;28;20209;-71
2023/05/26 00:19:44;;;;;;;9.93;5.70;;;;;;;10.03;76.68;101868.97;5039746;28;20561;-71
2023/05/26 00:22:14;;;;;;;10.07;6.13;;;;;;;10.00;76.73;101874.81;5055668;28;20729;-71
2023/05/26 00:24:40;;;;;;;7.77;5.90;;;;;;;9.97;77.54;101879.91;5048830;28;20679;-71
2023/05/26 00:27:06;;;;;;;9.70;6.13;;;;;;;9.94;77.60;101869.94;5052292;28;20197;-71
2023/05/26 00:29:35;;;;;;;8.93;6.07;;;;;;;9.90;77.95;101872.38;5045264;28;20630;-71
2023/05/26 00:32:01;;;;;;;7.83;6.37;;;;;;;9.87;78.32;101877.44;5047737;28;20219;-71
2023/05/26 00:34:28;;;;;;;11.27;5.97;;;;;;;9.84;77.89;101875.38;5047810;28;20211;-71
2023/05/26 00:36:55;;;;;;;7.50;5.93;;;;;;;9.78;77.83;101879.94;5051391;28;21062;-71
2023/05/26 00:39:22;;;;;;;7.63;6.00;;;;;;;9.77;78.14;101874.94;5032044;28;20321;-70
2023/05/26 00:41:49;;;;;;;10.83;6.53;;;;;;;9.73;78.48;101868.72;5048672;28;20227;-71
2023/05/26 00:44:15;;;;;;;9.63;6.57;;;;;;;9.70;78.45;101877.19;5040731;28;20562;-71
2023/05/26 00:46:41;;;;;;;7.50;6.03;;;;;;;9.67;78.38;101883.03;5034462;28;20269;-70
2023/05/26 00:49:09;;;;;;;10.20;6.77;;;;;;;9.64;78.84;101879.09;5038042;28;20287;-71
2023/05/26 00:51:36;;;;;;;9.87;6.00;;;;;;;9.61;79.16;101869.16;5046229;28;20278;-71
2023/05/26 00:54:06;;;;;;;8.77;6.20;;;;;;;9.59;79.10;101873.94;5030944;28;20211;-71
2023/05/26 00:56:34;;;;;;;6.77;5.80;;;;;;;9.56;79.09;101885.03;5050794;28;20243;-73
2023/05/26 00:59:02;;;;;;;7.53;6.13;;;;;;;9.53;78.99;101877.69;5062298;28;20215;-72
2023/05/26 01:01:29;;;;;;;9.03;6.90;;;;;;;9.54;79.34;101876.66;5061586;28;20231;-71
2023/05/26 01:03:56;;;;;;;10.10;6.10;;;;;;;9.51;79.40;101869.31;5066914;28;20230;-72
2023/05/26 01:06:22;;;;;;;7.40;6.03;;;;;;;9.50;79.72;101861.66;5050969;28;20216;-73
2023/05/26 01:08:49;;;;;;;8.67;6.50;;;;;;;9.47;79.84;101865.66;5064976;28;20218;-72
2023/05/26 01:11:26;;;;;;;8.27;6.07;;;;;;;9.44;79.96;101862.81;5064290;28;20211;-73
2023/05/26 01:13:55;;;;;;;8.63;5.70;;;;;;;9.40;79.85;101861.81;5049828;28;20223;-73
2023/05/26 01:16:27;;;;;;;9.80;6.07;;;;;;;9.35;79.67;101854.78;5043915;28;20212;-72
2023/05/26 01:19:00;;;;;;;7.73;5.80;;;;;;;9.33;79.89;101856.94;5050003;28;20238;-72
2023/05/26 01:21:32;;;;;;;10.97;5.93;;;;;;;9.31;80.00;101851.13;5066819;28;20207;-72
2023/05/26 01:24:12;;;;;;;9.03;6.63;;;;;;;9.28;80.46;101853.56;5068203;28;20198;-72
2023/05/26 01:26:53;;;;;;;9.80;5.80;;;;;;;9.27;80.46;101854.63;5048893;28;20195;-73
2023/05/26 01:29:22;;;;;;;9.77;6.73;;;;;;;9.24;80.16;101861.25;5032927;28;20226;-73
2023/05/26 01:31:48;;;;;;;7.67;6.33;;;;;;;9.20;79.82;101856.84;5059121;28;20578;-72
2023/05/26 01:34:15;;;;;;;8.83;5.80;;;;;;;9.19;80.10;101850.78;5046275;28;20203;-73
2023/05/26 01:36:41;;;;;;;7.30;6.23;;;;;;;9.16;80.23;101858.50;5063862;28;20634;-72
2023/05/26 01:39:10;;;;;;;8.80;6.13;;;;;;;9.13;80.05;101866.94;5047784;28;20219;-73
2023/05/26 01:41:43;;;;;;;9.57;5.80;;;;;;;9.10;80.13;101865.66;5061103;28;20303;-72
2023/05/26 01:44:13;;;;;;;7.87;5.93;;;;;;;9.08;80.54;101856.47;5054962;28;20226;-72
2023/05/26 01:46:45;;;;;;;8.07;5.80;;;;;;;9.06;81.02;101861.25;5059789;28;20199;-73
2023/05/26 01:49:14;;;;;;;8.20;5.70;;;;;;;9.04;80.82;101868.66;5064739;28;20179;-73
2023/05/26 01:51:47;;;;;;;9.07;5.63;;;;;;;9.02;80.61;101876.06;5047492;28;20250;-73
2023/05/26 01:54:17;;;;;;;7.70;6.10;;;;;;;8.99;81.04;101874.78;5054995;28;20210;-73
2023/05/26 01:56:45;;;;;;;7.10;5.93;;;;;;;8.97;81.41;101876.91;5036767;28;20609;-72
2023/05/26 01:59:13;;;;;;;8.33;5.83;;;;;;;8.98;81.24;101872.41;5047518;28;20203;-72
2023/05/26 02:01:42;;;;;;;7.20;5.97;;;;;;;8.97;81.61;101870.84;5045244;28;20732;-71
2023/05/26 02:04:10;;;;;;;10.17;6.37;;;;;;;8.95;81.81;101873.75;5032479;28;20197;-71
2023/05/26 02:06:37;;;;;;;10.80;7.80;;;;;;;8.93;81.18;101872.47;5032413;28;20214;-71
2023/05/26 02:09:05;;;;;;;9.33;6.30;;;;;;;8.91;81.13;101877.25;5030312;28;20561;-71
2023/05/26 02:11:31;;;;;;;10.37;6.33;;;;;;;8.89;80.75;101879.38;5033678;28;20215;-71
2023/05/26 02:13:58;;;;;;;7.23;6.27;;;;;;;8.91;80.96;101879.91;5035206;28;20186;-71
2023/05/26 02:16:25;;;;;;;8.37;6.00;;;;;;;8.90;81.65;101876.47;5045094;28;20215;-71
2023/05/26 02:18:52;;;;;;;9.80;6.70;;;;;;;8.92;81.89;101873.56;5028900;28;20293;-71
2023/05/26 02:21:19;;;;;;;9.90;6.70;;;;;;;8.90;81.97;101876.47;5026379;28;20306;-71
2023/05/26 02:23:45;;;;;;;9.03;7.03;;;;;;;8.87;81.64;101879.69;5046367;28;20235;-71
2023/05/26 02:26:13;;;;;;;10.83;6.40;;;;;;;8.87;82.13;101882.31;5025032;28;20195;-71
2023/05/26 02:28:41;;;;;;;9.50;6.47;;;;;;;8.88;81.84;101880.44;5051239;28;20728;-71
2023/05/26 02:31:08;;;;;;;11.63;6.90;;;;;;;8.87;82.55;101878.88;5044529;28;20208;-71
2023/05/26 02:33:34;;;;;;;10.70;6.83;;;;;;;8.86;81.79;101875.44;5045252;28;20227;-71
2023/05/26 02:36:06;;;;;;;9.33;6.93;;;;;;;8.85;81.91;101879.16;5028962;28;20211;-71
2023/05/26 02:38:32;;;;;;;10.17;6.73;;;;;;;8.84;82.14;101882.06;5049302;28;20203;-71
2023/05/26 02:40:58;;;;;;;9.23;6.80;;;;;;;8.80;82.13;101871.31;5032173;28;20257;-70
2023/05/26 02:43:25;;;;;;;7.37;6.57;;;;;;;8.83;82.30;101869.97;5047510;28;20203;-70
2023/05/26 02:45:51;;;;;;;12.53;6.83;;;;;;;8.84;82.75;101882.06;5030386;28;20200;-71
2023/05/26 02:48:18;;;;;;;9.07;6.70;;;;;;;8.86;82.42;101879.97;5035577;28;20213;-71
2023/05/26 02:50:44;;;;;;;9.60;7.33;;;;;;;8.86;82.52;101877.31;5024551;28;20227;-71
2023/05/26 02:53:12;;;;;;;9.30;6.33;;;;;;;8.85;82.80;101873.88;5050406;28;20214;-71
2023/05/26 02:55:39;;;;;;;9.43;6.23;;;;;;;8.83;82.36;101876.03;5032417;28;20201;-71
2023/05/26 02:58:05;;;;;;;11.07;7.70;;;;;;;8.82;81.87;101885.00;5031192;28;20233;-71
2023/05/26 03:00:32;;;;;;;10.50;7.37;;;;;;;8.79;81.61;101884.75;5028829;28;20256;-71
2023/05/26 03:02:58;;;;;;;10.90;7.10;;;;;;;8.78;81.20;101883.19;5035059;28;20703;-71
2023/05/26 03:05:25;;;;;;;8.50;6.60;;;;;;;8.80;82.05;101881.09;5030992;28;20674;-71
2023/05/26 03:07:51;;;;;;;11.40;6.70;;;;;;;8.81;82.34;101880.78;5034558;28;20655;-70
2023/05/26 03:10:19;;;;;;;9.33;6.37;;;;;;;8.81;82.42;101888.69;5040419;28;20204;-72
2023/05/26 03:12:45;;;;;;;9.47;6.43;;;;;;;8.80;83.03;101878.44;5031316;28;20601;-71
2023/05/26 03:15:12;;;;;;;9.43;6.83;;;;;;;8.78;82.74;101885.81;5048891;28;20206;-71
2023/05/26 03:17:39;;;;;;;9.17;6.53;;;;;;;8.77;82.83;101879.78;5033331;28;20223;-71
2023/05/26 03:20:07;;;;;;;11.17;6.83;;;;;;;8.75;82.91;101881.91;5030414;28;20203;-71
2023/05/26 03:22:34;;;;;;;7.93;6.40;;;;;;;8.74;82.45;101877.72;5043742;28;20224;-72
2023/05/26 03:25:00;;;;;;;7.90;6.50;;;;;;;8.74;82.62;101876.91;5043765;28;20198;-71
2023/05/26 03:27:39;;;;;;;11.10;7.10;;;;;;;8.73;82.45;101885.88;5036199;28;20198;-71
2023/05/26 03:30:07;;;;;;;8.77;6.77;;;;;;;8.73;83.03;101880.63;5031453;28;20250;-72
2023/05/26 03:32:34;;;;;;;8.83;6.40;;;;;;;8.74;82.65;101890.88;5046841;28;20315;-72
2023/05/26 03:35:00;;;;;;;10.90;7.20;;;;;;;8.76;82.99;101886.09;5035436;28;20257;-71
2023/05/26 03:37:27;;;;;;;10.20;7.30;;;;;;;8.78;83.42;101893.72;5033343;28;20698;-72
2023/05/26 03:39:54;;;;;;;9.40;7.10;;;;;;;8.79;83.50;101892.66;5050342;28;20187;-71
2023/05/26 03:42:23;;;;;;;13.57;7.50;;;;;;;8.84;83.56;101889.97;5034249;28;20309;-71
2023/05/26 03:44:52;;;;;;;13.23;7.50;;;;;;;8.86;83.53;101893.13;5032965;28;20670;-71
2023/05/26 03:47:18;;;;;;;9.07;7.60;;;;;;;8.86;83.09;101893.13;5052822;28;20199;-72
2023/05/26 03:49:45;;;;;;;15.53;7.93;;;;;;;8.87;82.67;101890.22;5035134;28;20199;-71
2023/05/26 03:52:11;;;;;;;13.77;6.90;;;;;;;8.89;83.10;101892.53;5033870;28;20239;-72
2023/05/26 03:54:38;;;;;;;12.43;8.20;;;;;;;8.93;83.24;101886.44;5025931;28;20234;-71
2023/05/26 03:57:04;;;;;;;10.70;7.93;;;;;;;9.00;83.39;101894.00;5026869;28;20212;-71
2023/05/26 03:59:31;;;;;;;14.10;9.10;;;;;;;9.04;83.06;101897.63;5034388;28;20261;-72
2023/05/26 04:01:59;;;;;;;8.67;7.17;;;;;;;9.08;83.15;101896.00;5026644;28;20223;-72
2023/05/26 04:04:26;;;;;;;15.30;8.87;;;;;;;9.14;83.13;101897.50;5034023;28;20353;-71
2023/05/26 04:06:52;;;;;;;15.50;8.40;;;;;;;9.20;82.59;101896.34;5038425;28;20206;-71
2023/05/26 04:09:19;;;;;;;14.47;8.70;;;;;;;9.30;82.80;101890.94;5051725;28;20199;-71
2023/05/26 04:11:46;;;;;;;13.57;9.00;;;;;;;9.38;82.97;101893.72;5036346;28;20234;-72
2023/05/26 04:14:13;;;;;;;20.00;8.83;;;;;;;9.47;82.99;101899.94;5039539;28;20233;-72
2023/05/26 04:16:39;;;;;;;14.63;9.83;;;;;;;9.55;82.97;101901.94;5030140;28;20257;-72
2023/05/26 04:19:07;;;;;;;12.00;8.33;;;;;;;9.62;82.50;101905.00;5053808;28;20684;-72
2023/05/26 04:21:33;;;;;;;12.60;9.23;;;;;;;9.71;82.45;101910.41;5029752;28;20220;-72
2023/05/26 04:24:00;;;;;;;13.30;8.87;;;;;;;9.78;82.32;101913.47;5036342;28;20203;-72
2023/05/26 04:26:28;;;;;;;14.30;9.30;;;;;;;9.89;82.32;101914.88;5044978;28;20192;-72
2023/05/26 04:29:18;;;;;;;11.87;8.17;;;;;;;9.97;81.89;101914.22;5047925;28;20204;-72
2023/05/26 04:32:05;;;;;;;11.63;8.20;;;;;;;10.05;81.35;101926.78;5055055;28;20232;-72
2023/05/26 04:34:44;;;;;;;13.67;8.77;;;;;;;10.13;80.78;101920.81;5046830;28;20191;-72
2023/05/26 04:37:15;;;;;;;11.77;8.83;;;;;;;10.22;80.55;101929.66;5054385;28;20295;-72
2023/05/26 04:39:42;;;;;;;10.43;8.10;;;;;;;10.30;80.66;101929.00;5051942;28;20201;-72
2023/05/26 04:42:12;;;;;;;11.53;7.67;;;;;;;10.37;80.34;101926.75;5032680;28;20581;-72
2023/05/26 04:44:43;;;;;;;15.17;8.70;;;;;;;10.48;80.04;101936.06;5050573;28;20235;-72
2023/05/26 04:47:09;;;;;;;11.43;8.43;;;;;;;10.55;80.20;101933.81;5042392;28;20661;-72
2023/05/26 04:49:36;;;;;;;11.20;7.80;;;;;;;10.64;79.86;101937.34;5033595;28;20260;-72
2023/05/26 04:52:05;;;;;;;10.17;7.87;;;;;;;10.70;79.01;101939.63;5053126;28;20233;-72
2023/05/26 04:54:34;;;;;;;11.83;7.53;;;;;;;10.78;78.73;101949.50;5046134;28;20307;-72
2023/05/26 04:57:01;;;;;;;10.57;8.07;;;;;;;10.87;78.20;101942.44;5032882;28;20320;-72
2023/05/26 04:59:43;;;;;;;14.70;8.27;;;;;;;10.95;77.79;101951.56;5037553;28;20193;-72
2023/05/26 05:02:09;;;;;;;9.83;7.47;;;;;;;11.03;77.97;101950.88;5044126;28;20784;-72
2023/05/26 05:04:52;;;;;;;11.00;7.53;;;;;;;11.15;77.96;101951.16;5032523;28;20195;-72
2023/05/26 05:07:19;;;;;;;12.30;8.40;;;;;;;11.25;78.22;101950.94;5049460;28;20203;-72
2023/05/26 05:09:46;;;;;;;15.70;7.80;;;;;;;11.34;77.75;101936.72;5037745;28;20200;-72
2023/05/26 05:12:12;;;;;;;10.73;7.60;;;;;;;11.44;77.02;101935.72;5028216;28;20224;-72
2023/05/26 05:14:40;;;;;;;12.37;7.47;;;;;;;11.53;76.68;101944.50;5030700;28;20215;-72
2023/05/26 05:17:06;;;;;;;11.23;6.93;;;;;;;11.61;76.17;101943.84;5029689;28;20632;-72
2023/05/26 05:19:33;;;;;;;12.70;6.87;;;;;;;11.70;75.80;101939.41;5035993;28;20203;-72
2023/05/26 05:21:59;;;;;;;11.00;7.17;;;;;;;11.79;75.38;101943.69;5049859;28;20235;-72
2023/05/26 05:24:28;;;;;;;15.57;7.13;;;;;;;11.89;75.13;101950.59;5038072;28;20210;-72
2023/05/26 05:26:54;;;;;;;13.50;7.00;;;;;;;11.98;75.67;101954.09;5046793;28;20197;-71
2023/05/26 05:29:24;;;;;;;14.80;6.93;;;;;;;12.07;75.00;101947.75;5038178;28;20195;-72
2023/05/26 05:31:53;;;;;;;11.57;6.50;;;;;;;12.17;74.84;101954.69;5035432;28;20310;-72
2023/05/26 05:34:19;;;;;;;12.00;7.03;;;;;;;12.27;74.06;101962.38;5046606;28;20237;-72
2023/05/26 05:36:47;;;;;;;16.03;7.03;;;;;;;12.34;73.40;101952.94;5067500;28;20267;-72
2023/05/26 05:39:13;;;;;;;14.30;6.70;;;;;;;12.44;73.75;101957.97;5053331;28;20209;-72
2023/05/26 05:41:41;;;;;;;12.33;6.33;;;;;;;12.52;73.35;101961.75;5052313;28;20224;-72
2023/05/26 05:44:08;;;;;;;14.33;6.37;;;;;;;12.61;72.56;101965.19;5053198;28;20248;-72
2023/05/26 05:46:34;;;;;;;8.20;5.43;;;;;;;12.70;72.97;101974.78;5057610;28;20201;-71
2023/05/26 05:49:14;;;;;;;11.80;6.33;;;;;;;12.80;73.02;101979.00;5060054;28;20206;-71
2023/05/26 05:51:44;;;;;;;11.47;6.37;;;;;;;12.90;72.71;101984.84;5066167;28;20210;-71
2023/05/26 05:54:11;;;;;;;12.43;5.93;;;;;;;13.01;72.55;101980.06;5067360;28;20563;-71
2023/05/26 05:56:38;;;;;;;11.80;6.27;;;;;;;13.10;72.18;101978.22;5055036;28;20222;-72
2023/05/26 05:59:10;;;;;;;10.83;5.70;;;;;;;13.19;72.06;101979.03;5056679;28;20234;-72
2023/05/26 06:01:37;;;;;;;15.00;6.67;;;;;;;13.31;71.75;101981.84;5044062;28;20292;-71
2023/05/26 06:04:03;;;;;;;12.23;5.90;;;;;;;13.40;71.44;101974.69;5053578;28;20206;-72
2023/05/26 06:06:32;;;;;;;10.70;6.20;;;;;;;13.50;70.60;101977.06;5043483;28;20196;-72
2023/05/26 06:08:58;;;;;;;10.47;6.13;;;;;;;13.58;70.65;101985.03;5048815;28;20205;-72
2023/05/26 06:11:25;;;;;;;14.03;6.53;;;;;;;13.69;70.78;101974.88;5046857;28;20709;-72
2023/05/26 06:13:52;;;;;;;14.53;6.40;;;;;;;13.77;69.39;101982.81;5053000;28;20236;-72
2023/05/26 06:16:19;;;;;;;8.83;5.43;;;;;;;13.86;69.40;101982.81;5049701;28;20643;-72
2023/05/26 06:18:46;;;;;;;16.63;6.20;;;;;;;13.96;69.58;101985.16;5048917;28;20295;-71
2023/05/26 06:21:13;;;;;;;13.90;5.80;;;;;;;14.04;68.50;101985.19;5053132;28;20285;-71
2023/05/26 06:23:42;;;;;;;10.50;6.07;;;;;;;14.12;68.13;101980.97;5058933;28;20202;-72
2023/05/26 06:26:08;;;;;;;15.80;6.30;;;;;;;14.20;69.08;101978.31;5045876;28;20199;-72
2023/05/26 06:28:35;;;;;;;12.23;6.03;;;;;;;14.29;68.27;101987.03;5053363;28;20191;-72
2023/05/26 06:31:01;;;;;;;14.57;5.00;;;;;;;14.35;68.06;101990.31;5064289;28;20214;-71
2023/05/26 06:33:44;;;;;;;12.77;5.47;;;;;;;14.42;68.15;101991.38;5051566;28;20202;-72
2023/05/26 06:36:11;;;;;;;13.37;5.33;;;;;;;14.49;67.96;101986.34;5050712;28;20206;-72
2023/05/26 06:38:38;;;;;;;9.53;5.27;;;;;;;14.55;67.73;101989.63;5046544;28;20221;-72
2023/05/26 06:41:07;;;;;;;10.93;4.60;;;;;;;14.63;67.86;101991.47;5063345;28;20265;-72
2023/05/26 06:43:35;;;;;;;11.77;5.30;;;;;;;14.71;65.88;101988.81;5043281;28;20190;-71
2023/05/26 06:46:04;;;;;;;14.83;5.57;;;;;;;14.80;66.64;101997.50;5043758;28;20225;-72
2023/05/26 06:48:30;;;;;;;8.90;4.63;;;;;;;14.93;66.53;101983.22;5059072;28;20677;-72
2023/05/26 06:51:16;;;;;;;12.80;4.93;;;;;;;15.04;66.55;101995.06;5054806;28;20246;-72
2023/05/26 06:53:45;;;;;;;11.40;4.60;;;;;;;15.16;65.67;101994.38;5038618;28;20215;-72
2023/05/26 06:56:12;;;;;;;13.73;4.63;;;;;;;15.25;64.97;101990.56;5036541;28;20200;-72
2023/05/26 06:58:39;;;;;;;11.77;4.77;;;;;;;15.35;64.63;102000.09;5039089;28;20227;-71
2023/05/26 07:01:05;;;;;;;9.80;4.87;;;;;;;15.44;63.53;101993.63;5037457;28;20215;-72
2023/05/26 07:03:34;;;;;;;9.53;4.10;;;;;;;15.56;63.74;101992.91;5041463;28;20573;-72
2023/05/26 07:06:02;;;;;;;11.73;4.13;;;;;;;15.71;63.15;101989.66;5042983;28;20225;-72
2023/05/26 07:08:32;;;;;;;14.37;4.57;;;;;;;15.81;62.41;101991.91;5044620;28;20202;-72
2023/05/26 07:11:21;;;;;;;9.27;4.27;;;;;;;15.93;62.43;101987.44;5046177;28;20585;-72
2023/05/26 07:13:51;;;;;;;12.67;4.90;;;;;;;16.05;62.55;101986.72;5042437;28;20197;-72
2023/05/26 07:16:19;;;;;;;8.27;4.60;;;;;;;16.14;61.11;101988.19;5060516;28;20248;-72
2023/05/26 07:18:46;;;;;;;10.43;4.30;;;;;;;16.26;62.88;101990.09;5033964;28;20269;-72
2023/05/26 07:21:14;;;;;;;10.50;3.97;;;;;;;16.41;60.77;101992.19;5044436;28;20705;-72
2023/05/26 07:23:42;;;;;;;12.13;5.10;;;;;;;16.54;60.87;101988.41;5054056;28;20252;-70
2023/05/26 07:26:08;;;;;;;11.27;4.63;;;;;;;16.58;61.27;101989.31;5048299;28;20220;-73
2023/05/26 07:28:35;;;;;;;9.47;3.57;;;;;;;16.63;59.35;101997.09;5041658;28;20199;-72
2023/05/26 07:31:02;;;;;;;11.57;4.10;;;;;;;16.72;60.06;101990.56;5060585;28;20219;-71
2023/05/26 07:33:34;;;;;;;12.63;4.00;;;;;;;16.81;60.28;101996.56;5046458;28;20210;-73
2023/05/26 07:36:00;;;;;;;12.23;4.10;;;;;;;16.92;59.44;102000.34;5054419;28;20211;-73
2023/05/26 07:38:27;;;;;;;9.30;4.23;;;;;;;16.99;59.49;101997.94;5042528;28;20443;-72
2023/05/26 07:40:55;;;;;;;11.33;3.67;;;;;;;17.08;58.09;101995.91;5052660;28;20211;-73
2023/05/26 07:43:21;;;;;;;12.40;4.30;;;;;;;17.25;59.08;101994.91;5057515;28;20206;-71
2023/05/26 07:45:48;;;;;;;8.40;3.57;;;;;;;17.36;56.60;101996.78;5063750;28;20203;-72
2023/05/26 07:48:14;;;;;;;12.80;4.00;;;;;;;17.44;57.43;102001.22;5057684;28;20187;-72
2023/05/26 07:50:41;;;;;;;11.33;3.70;;;;;;;17.50;57.26;101996.44;5056809;28;20204;-71
2023/05/26 07:53:08;;;;;;;12.20;4.13;;;;;;;17.52;56.05;101991.53;5062995;28;20192;-73
2023/05/26 07:55:34;;;;;;;15.73;3.50;;;;;;;17.57;56.33;101993.97;5057428;28;20761;-72
2023/05/26 07:58:02;;;;;;;12.07;3.83;;;;;;;17.57;55.29;101993.97;5055588;28;20215;-73
2023/05/26 08:00:28;;;;;;;11.27;3.70;;;;;;;17.59;56.48;101992.53;5064079;28;20195;-72
2023/05/26 08:02:55;;;;;;;14.83;3.73;;;;;;;17.67;53.52;101991.63;5050251;28;20234;-73
2023/05/26 08:05:24;;;;;;;11.83;3.40;;;;;;;17.63;53.66;101993.41;5053053;28;20580;-72
2023/05/26 08:07:50;;;;;;;7.73;3.37;;;;;;;17.63;55.34;101984.59;5061211;28;20207;-72
2023/05/26 08:10:16;;;;;;;10.03;3.33;;;;;;;17.64;53.42;101994.19;5063578;28;20550;-72
2023/05/26 08:12:43;;;;;;;12.83;3.63;;;;;;;17.68;53.61;101992.38;5033169;28;20282;-73
2023/05/26 08:15:15;;;;;;;11.77;3.63;;;;;;;17.71;52.21;102000.53;5058585;28;20306;-71
2023/05/26 08:17:42;;;;;;;10.00;3.30;;;;;;;17.73;52.13;101997.47;5052057;28;20198;-72
2023/05/26 08:20:09;;;;;;;7.97;2.80;;;;;;;17.72;51.43;101996.72;5052459;28;20218;-72
2023/05/26 08:22:36;;;;;;;10.13;3.20;;;;;;;17.75;52.44;101982.66;5057734;28;20291;-72
2023/05/26 08:25:03;;;;;;;7.20;3.33;;;;;;;17.82;52.64;101987.44;5057793;28;20195;-72
2023/05/26 08:27:29;;;;;;;10.83;3.03;;;;;;;17.84;51.12;101990.53;5062439;28;20196;-72
2023/05/26 08:29:56;;;;;;;10.13;3.30;;;;;;;17.82;50.63;101990.91;5066633;28;20281;-72
2023/05/26 08:32:23;;;;;;;10.37;3.33;;;;;;;17.72;49.70;101996.72;5062862;28;20225;-71
2023/05/26 08:34:50;;;;;;;9.63;3.03;;;;;;;17.67;50.56;101996.16;5063715;28;20215;-72
2023/05/26 08:37:17;;;;;;;10.57;3.20;;;;;;;17.75;50.48;101989.94;5065204;28;20199;-73
2023/05/26 08:39:43;;;;;;;9.30;2.87;;;;;;;17.81;49.97;101991.25;5040126;28;20204;-72
2023/05/26 08:42:14;;;;;;;8.63;2.60;;;;;;;17.80;50.81;101985.09;5054293;28;20227;-73
2023/05/26 08:44:43;;;;;;;9.87;2.87;;;;;;;17.88;50.95;101991.44;5066882;28;20213;-73
2023/05/26 08:47:12;;;;;;;15.33;3.30;;;;;;;17.95;49.00;101983.63;5063757;28;20209;-72
2023/05/26 08:49:45;;;;;;;8.17;3.00;;;;;;;17.99;48.66;101976.44;5063651;28;20230;-72
2023/05/26 08:52:14;;;;;;;7.90;3.00;;;;;;;18.05;46.75;101980.47;5062359;28;20223;-73
2023/05/26 08:54:40;;;;;;;7.70;2.80;;;;;;;18.01;45.62;101976.91;5065081;28;20202;-72
2023/05/26 08:57:07;;;;;;;8.17;2.93;;;;;;;18.05;47.45;101977.78;5058271;28;20198;-72
2023/05/26 08:59:34;;;;;;;9.93;2.87;;;;;;;18.08;46.80;101977.88;5065916;28;20290;-72
2023/05/26 09:02:00;;;;;;;8.37;2.87;;;;;;;18.14;47.39;101979.19;5060398;28;20212;-72
2023/05/26 09:04:31;;;;;;;7.83;2.63;;;;;;;18.20;48.70;101990.38;5046586;28;20203;-72
2023/05/26 09:06:59;;;;;;;8.93;3.10;;;;;;;18.25;47.21;101982.91;5054305;28;20196;-71
2023/05/26 09:09:25;;;;;;;6.63;2.90;;;;;;;18.31;48.96;101984.19;5057842;28;20250;-72
2023/05/26 09:11:53;;;;;;;8.30;3.40;;;;;;;18.39;46.02;101991.31;5062354;28;20233;-72
2023/05/26 09:14:21;;;;;;;12.33;3.20;;;;;;;18.45;45.93;101991.84;5061635;28;20199;-72
2023/05/26 09:16:48;;;;;;;7.80;3.40;;;;;;;18.49;45.20;101995.38;5043038;28;20207;-72
2023/05/26 09:19:17;;;;;;;8.40;3.43;;;;;;;18.53;45.80;101982.88;5061242;28;20551;-72
2023/05/26 09:21:46;;;;;;;10.93;3.10;;;;;;;18.58;45.96;101979.94;5057418;28;20652;-73
2023/05/26 09:24:15;;;;;;;9.77;3.10;;;;;;;18.64;46.74;101973.22;5061201;28;20660;-72
2023/05/26 09:26:41;;;;;;;12.57;3.20;;;;;;;18.72;47.29;101974.91;5053172;28;20290;-72
2023/05/26 09:29:08;;;;;;;10.13;3.03;;;;;;;18.78;46.19;101976.25;5043232;28;20199;-72
2023/05/26 09:31:38;;;;;;;7.17;2.90;;;;;;;18.81;44.94;101980.88;5050198;28;20215;-72
2023/05/26 09:34:05;;;;;;;9.10;2.97;;;;;;;18.86;46.01;101980.63;5058203;28;20198;-73
2023/05/26 09:36:33;;;;;;;6.23;2.60;;;;;;;18.93;46.95;101981.56;5043005;28;20234;-72
2023/05/26 09:39:01;;;;;;;9.43;3.17;;;;;;;19.01;45.89;101988.66;5061532;28;20278;-72
2023/05/26 09:41:37;;;;;;;10.23;3.03;;;;;;;19.06;46.38;101995.63;5053893;28;20694;-72
2023/05/26 09:44:08;;;;;;;8.03;3.20;;;;;;;19.09;44.31;101993.03;5060021;28;20202;-73
2023/05/26 09:46:35;;;;;;;14.47;3.20;;;;;;;19.12;45.08;101980.84;5047467;28;20215;-72
2023/05/26 09:49:03;;;;;;;11.00;2.93;;;;;;;19.16;43.66;101982.50;5057362;28;20191;-73
2023/05/26 09:51:31;;;;;;;9.17;2.83;;;;;;;19.22;44.67;101975.75;5056059;28;20246;-73
2023/05/26 09:53:57;;;;;;;6.60;2.60;;;;;;;19.27;43.88;101978.16;5047447;28;20203;-72
2023/05/26 09:56:26;;;;;;;8.23;3.00;;;;;;;19.33;43.40;101976.75;5056144;28;20646;-72
2023/05/26 09:58:55;;;;;;;11.37;2.90;;;;;;;19.41;43.94;101977.69;5057786;28;20265;-72
2023/05/26 10:01:24;;;;;;;9.37;3.00;;;;;;;19.45;44.35;101983.91;5059235;28;20215;-72
2023/05/26 10:03:52;;;;;;;7.87;2.77;;;;;;;19.51;42.09;101982.50;5040656;28;20214;-73
2023/05/26 10:06:19;;;;;;;11.67;3.10;;;;;;;19.56;44.19;101982.22;5058483;28;20813;-72
2023/05/26 10:08:47;;;;;;;8.80;2.50;;;;;;;19.58;42.89;101980.75;5060080;28;20195;-72
2023/05/26 10:11:14;;;;;;;7.93;2.80;;;;;;;19.63;43.09;101974.31;5052667;28;20214;-71
2023/05/26 10:13:41;;;;;;;8.17;2.80;;;;;;;19.68;43.88;101985.56;5062656;28;20198;-72
2023/05/26 10:16:09;;;;;;;9.37;2.97;;;;;;;19.76;43.55;101975.75;5065804;28;20200;-70
2023/05/26 10:18:35;;;;;;;11.77;3.93;;;;;;;19.80;42.60;101973.88;5069517;28;20195;-72
2023/05/26 10:21:06;;;;;;;10.20;2.70;;;;;;;19.82;40.09;101974.34;5059924;28;20393;-72
2023/05/26 10:23:40;;;;;;;8.23;2.97;;;;;;;19.84;40.54;101980.88;5059712;28;20674;-71
2023/05/26 10:26:11;;;;;;;10.87;3.10;;;;;;;19.88;40.67;101967.56;5053311;28;20191;-70
2023/05/26 10:28:41;;;;;;;9.87;2.83;;;;;;;19.92;42.06;101966.47;5048514;28;20811;-72
2023/05/26 10:31:09;;;;;;;6.80;2.53;;;;;;;19.95;41.54;101963.09;5058570;28;20211;-71
2023/05/26 10:33:40;;;;;;;9.47;2.67;;;;;;;19.99;43.18;101968.53;5044019;28;20191;-71
2023/05/26 10:36:08;;;;;;;10.13;2.90;;;;;;;20.05;41.60;101964.41;5054464;28;20198;-72
2023/05/26 10:38:37;;;;;;;6.43;2.20;;;;;;;20.02;39.14;101957.84;5051551;28;20199;-72
2023/05/26 10:41:10;;;;;;;10.43;3.13;;;;;;;20.05;37.62;101967.09;5062462;28;20222;-72
2023/05/26 10:43:36;;;;;;;8.00;2.83;;;;;;;20.03;37.53;101964.75;5050886;28;20192;-72
2023/05/26 10:46:04;;;;;;;11.20;2.50;;;;;;;20.11;39.47;101971.06;5056008;28;20202;-71
2023/05/26 10:48:36;;;;;;;9.93;2.90;;;;;;;20.09;38.00;101968.75;5051357;28;20203;-72
2023/05/26 10:51:27;;;;;;;7.73;2.17;;;;;;;20.11;37.90;101968.38;5060553;28;21333;-72
2023/05/26 10:53:56;;;;;;;6.00;2.60;;;;;;;20.13;37.09;101953.47;5055314;28;20206;-71
2023/05/26 10:56:25;;;;;;;6.40;2.20;;;;;;;20.20;37.08;101963.56;5058106;28;20269;-71
2023/05/26 10:58:57;;;;;;;6.37;2.20;;;;;;;20.24;37.05;101959.06;5038586;28;20202;-72
2023/05/26 11:01:29;;;;;;;7.87;2.63;;;;;;;20.27;37.16;101953.75;5061638;28;20238;-71
2023/05/26 11:04:09;;;;;;;7.80;2.30;;;;;;;20.34;36.62;101958.47;5043892;28;20530;-72
2023/05/26 11:06:45;;;;;;;6.43;2.17;;;;;;;20.34;34.58;101961.16;5041132;28;20227;-71
2023/05/26 11:09:12;;;;;;;7.27;2.73;;;;;;;20.35;34.29;101960.78;5056434;28;20711;-72
2023/05/26 11:11:49;;;;;;;6.07;1.97;;;;;;;20.38;37.64;101959.31;5057564;28;20228;-72
2023/05/26 11:14:21;;;;;;;5.53;2.23;;;;;;;20.41;35.64;101950.53;5055749;28;20199;-72
2023/05/26 11:16:48;;;;;;;5.97;2.53;;;;;;;20.43;34.55;101956.31;5052815;28;20202;-71
2023/05/26 11:19:27;;;;;;;5.13;2.10;;;;;;;20.46;35.17;101939.50;5055935;28;20211;-72
2023/05/26 11:21:54;;;;;;;6.40;2.40;;;;;;;20.49;33.34;101936.09;5050358;28;20222;-72
2023/05/26 11:24:22;;;;;;;7.70;2.60;;;;;;;20.55;36.67;101942.72;5053280;28;20609;-72
2023/05/26 11:26:49;;;;;;;7.60;2.40;;;;;;;20.60;34.12;101943.16;5046446;28;20210;-71
2023/05/26 11:29:16;;;;;;;7.57;2.33;;;;;;;20.63;34.45;101937.09;5051663;28;20619;-72